sensor_id;sensor_type;location;lat;lon;timestamp;temperature;humidity
8858;DHT22;4465;50.904;4.696;2023-04-06T00:01:48;5.10;99.90
8858;DHT22;4465;50.904;4.696;2023-04-06T00:04:16;5.10;99.90
8858;DHT22;4465;50.904;4.696;2023-04-06T00:06:42;5.10;99.90
8858;DHT22;4465;50.904;4.696;2023-04-06T00:09:08;5.00;99.90
8858;DHT22;4465;50.904;4.696;2023-04-06T00:11:34;5.00;99.90
8858;DHT22;4465;50.904;4.696;2023-04-06T00:14:02;5.00;99.90
8858;DHT22;4465;50.904;4.696;2023-04-06T00:16:28;5.00;99.90
8858;DHT22;4465;50.904;4.696;2023-04-06T00:18:53;5.00;99.90
8858;DHT22;4465;50.904;4.696;2023-04-06T00:21:19;5.00;99.90
8858;DHT22;4465;50.904;4.696;2023-04-06T00:23:45;5.00;99.90
8858;DHT22;4465;50.904;4.696;2023-04-06T00:26:11;5.00;99.90
8858;DHT22;4465;50.904;4.696;2023-04-06T00:28:39;5.00;99.90
8858;DHT22;4465;50.904;4.696;2023-04-06T00:31:05;5.00;99.90
8858;DHT22;4465;50.904;4.696;2023-04-06T00:33:30;5.00;99.90
8858;DHT22;4465;50.904;4.696;2023-04-06T00:35:56;5.00;99.90
8858;DHT22;4465;50.904;4.696;2023-04-06T00:38:23;5.00;99.90
8858;DHT22;4465;50.904;4.696;2023-04-06T00:40:49;4.90;99.90
8858;DHT22;4465;50.904;4.696;2023-04-06T00:43:15;5.00;99.90
8858;DHT22;4465;50.904;4.696;2023-04-06T00:45:41;5.00;99.90
8858;DHT22;4465;50.904;4.696;2023-04-06T00:48:07;5.00;99.90
8858;DHT22;4465;50.904;4.696;2023-04-06T00:50:34;5.00;99.90
8858;DHT22;4465;50.904;4.696;2023-04-06T00:53:00;4.90;99.90
8858;DHT22;4465;50.904;4.696;2023-04-06T00:55:26;5.00;99.90
8858;DHT22;4465;50.904;4.696;2023-04-06T00:57:52;5.00;99.90
8858;DHT22;4465;50.904;4.696;2023-04-06T01:00:20;5.00;99.90
8858;DHT22;4465;50.904;4.696;2023-04-06T01:02:46;5.00;99.90
8858;DHT22;4465;50.904;4.696;2023-04-06T01:05:13;5.00;99.90
8858;DHT22;4465;50.904;4.696;2023-04-06T01:07:39;5.00;99.90
8858;DHT22;4465;50.904;4.696;2023-04-06T01:10:05;5.10;99.90
8858;DHT22;4465;50.904;4.696;2023-04-06T01:12:31;5.10;99.90
8858;DHT22;4465;50.904;4.696;2023-04-06T01:14:57;5.10;99.90
8858;DHT22;4465;50.904;4.696;2023-04-06T01:17:25;5.10;99.90
8858;DHT22;4465;50.904;4.696;2023-04-06T01:19:51;5.10;99.90
8858;DHT22;4465;50.904;4.696;2023-04-06T01:22:19;5.10;99.90
8858;DHT22;4465;50.904;4.696;2023-04-06T01:24:47;5.10;99.90
8858;DHT22;4465;50.904;4.696;2023-04-06T01:27:13;5.10;99.90
8858;DHT22;4465;50.904;4.696;2023-04-06T01:29:41;5.10;99.90
8858;DHT22;4465;50.904;4.696;2023-04-06T01:32:08;5.10;99.90
8858;DHT22;4465;50.904;4.696;2023-04-06T01:34:34;5.20;99.90
8858;DHT22;4465;50.904;4.696;2023-04-06T01:37:02;5.20;99.90
8858;DHT22;4465;50.904;4.696;2023-04-06T01:39:30;5.20;99.90
8858;DHT22;4465;50.904;4.696;2023-04-06T01:41:56;5.20;99.90
8858;DHT22;4465;50.904;4.696;2023-04-06T01:44:22;5.20;99.90
8858;DHT22;4465;50.904;4.696;2023-04-06T01:46:50;5.20;99.90
8858;DHT22;4465;50.904;4.696;2023-04-06T01:49:16;5.20;99.90
8858;DHT22;4465;50.904;4.696;2023-04-06T01:51:42;5.20;99.90
8858;DHT22;4465;50.904;4.696;2023-04-06T01:54:10;5.20;99.90
8858;DHT22;4465;50.904;4.696;2023-04-06T01:56:35;5.30;99.90
8858;DHT22;4465;50.904;4.696;2023-04-06T01:59:01;5.30;99.90
8858;DHT22;4465;50.904;4.696;2023-04-06T02:01:27;5.30;99.90
8858;DHT22;4465;50.904;4.696;2023-04-06T02:03:56;5.30;99.90
8858;DHT22;4465;50.904;4.696;2023-04-06T02:06:24;5.30;99.90
8858;DHT22;4465;50.904;4.696;2023-04-06T02:08:50;5.30;99.90
8858;DHT22;4465;50.904;4.696;2023-04-06T02:11:16;5.30;99.90
8858;DHT22;4465;50.904;4.696;2023-04-06T02:13:42;5.30;99.90
8858;DHT22;4465;50.904;4.696;2023-04-06T02:16:08;5.30;99.90
8858;DHT22;4465;50.904;4.696;2023-04-06T02:18:33;5.30;99.90
8858;DHT22;4465;50.904;4.696;2023-04-06T02:20:59;5.30;99.90
8858;DHT22;4465;50.904;4.696;2023-04-06T02:23:26;5.30;99.90
8858;DHT22;4465;50.904;4.696;2023-04-06T02:25:52;5.30;99.90
8858;DHT22;4465;50.904;4.696;2023-04-06T02:28:17;5.30;99.90
8858;DHT22;4465;50.904;4.696;2023-04-06T02:30:46;5.30;99.90
8858;DHT22;4465;50.904;4.696;2023-04-06T02:33:12;5.30;99.90
8858;DHT22;4465;50.904;4.696;2023-04-06T02:35:37;5.30;99.90
8858;DHT22;4465;50.904;4.696;2023-04-06T02:38:03;5.30;99.90
8858;DHT22;4465;50.904;4.696;2023-04-06T02:40:29;5.30;99.90
8858;DHT22;4465;50.904;4.696;2023-04-06T02:42:55;5.30;99.90
8858;DHT22;4465;50.904;4.696;2023-04-06T02:45:23;5.30;99.90
8858;DHT22;4465;50.904;4.696;2023-04-06T02:47:50;5.30;99.90
8858;DHT22;4465;50.904;4.696;2023-04-06T02:50:18;5.30;99.90
8858;DHT22;4465;50.904;4.696;2023-04-06T02:52:43;5.40;99.90
8858;DHT22;4465;50.904;4.696;2023-04-06T02:55:11;5.40;99.90
8858;DHT22;4465;50.904;4.696;2023-04-06T02:57:37;5.30;99.90
8858;DHT22;4465;50.904;4.696;2023-04-06T03:00:03;5.40;99.90
8858;DHT22;4465;50.904;4.696;2023-04-06T03:02:29;5.40;99.90
8858;DHT22;4465;50.904;4.696;2023-04-06T03:04:55;5.40;99.90
8858;DHT22;4465;50.904;4.696;2023-04-06T03:07:21;5.40;99.90
8858;DHT22;4465;50.904;4.696;2023-04-06T03:09:47;5.30;99.90
8858;DHT22;4465;50.904;4.696;2023-04-06T03:12:13;5.30;99.90
8858;DHT22;4465;50.904;4.696;2023-04-06T03:14:38;5.30;99.90
8858;DHT22;4465;50.904;4.696;2023-04-06T03:17:04;5.30;99.90
8858;DHT22;4465;50.904;4.696;2023-04-06T03:19:30;5.30;99.90
8858;DHT22;4465;50.904;4.696;2023-04-06T03:21:56;5.30;99.90
8858;DHT22;4465;50.904;4.696;2023-04-06T03:24:22;5.30;99.90
8858;DHT22;4465;50.904;4.696;2023-04-06T03:26:48;5.30;99.90
8858;DHT22;4465;50.904;4.696;2023-04-06T03:29:13;5.40;99.90
8858;DHT22;4465;50.904;4.696;2023-04-06T03:31:42;5.40;99.90
8858;DHT22;4465;50.904;4.696;2023-04-06T03:34:08;5.40;99.90
8858;DHT22;4465;50.904;4.696;2023-04-06T03:36:34;5.40;99.90
8858;DHT22;4465;50.904;4.696;2023-04-06T03:39:03;5.40;99.90
8858;DHT22;4465;50.904;4.696;2023-04-06T03:41:31;5.40;99.90
8858;DHT22;4465;50.904;4.696;2023-04-06T03:43:57;5.40;99.90
8858;DHT22;4465;50.904;4.696;2023-04-06T03:46:22;5.40;99.90
8858;DHT22;4465;50.904;4.696;2023-04-06T03:48:48;5.40;99.90
8858;DHT22;4465;50.904;4.696;2023-04-06T03:51:14;5.40;99.90
8858;DHT22;4465;50.904;4.696;2023-04-06T03:53:42;5.40;99.90
8858;DHT22;4465;50.904;4.696;2023-04-06T03:56:08;5.40;99.90
8858;DHT22;4465;50.904;4.696;2023-04-06T03:58:34;5.40;99.90
8858;DHT22;4465;50.904;4.696;2023-04-06T04:01:00;5.40;99.90
8858;DHT22;4465;50.904;4.696;2023-04-06T04:03:28;5.40;99.90
8858;DHT22;4465;50.904;4.696;2023-04-06T04:05:54;5.50;99.90
8858;DHT22;4465;50.904;4.696;2023-04-06T04:08:25;5.40;99.90
8858;DHT22;4465;50.904;4.696;2023-04-06T04:10:51;5.50;99.90
8858;DHT22;4465;50.904;4.696;2023-04-06T04:13:17;5.50;99.90
8858;DHT22;4465;50.904;4.696;2023-04-06T04:15:42;5.50;99.90
8858;DHT22;4465;50.904;4.696;2023-04-06T04:18:08;5.50;99.90
8858;DHT22;4465;50.904;4.696;2023-04-06T04:20:34;5.50;99.90
8858;DHT22;4465;50.904;4.696;2023-04-06T04:23:00;5.50;99.90
8858;DHT22;4465;50.904;4.696;2023-04-06T04:25:28;5.50;99.90
8858;DHT22;4465;50.904;4.696;2023-04-06T04:27:54;5.70;99.90
8858;DHT22;4465;50.904;4.696;2023-04-06T04:30:20;5.60;99.90
8858;DHT22;4465;50.904;4.696;2023-04-06T04:32:48;5.60;99.90
8858;DHT22;4465;50.904;4.696;2023-04-06T04:35:16;5.60;99.90
8858;DHT22;4465;50.904;4.696;2023-04-06T04:37:42;5.50;99.90
8858;DHT22;4465;50.904;4.696;2023-04-06T04:40:08;5.60;99.90
8858;DHT22;4465;50.904;4.696;2023-04-06T04:42:34;5.60;99.90
8858;DHT22;4465;50.904;4.696;2023-04-06T04:44:59;5.60;99.90
8858;DHT22;4465;50.904;4.696;2023-04-06T04:47:25;5.60;99.90
8858;DHT22;4465;50.904;4.696;2023-04-06T04:49:51;5.60;99.90
8858;DHT22;4465;50.904;4.696;2023-04-06T04:52:17;5.60;99.90
8858;DHT22;4465;50.904;4.696;2023-04-06T04:54:43;5.60;99.90
8858;DHT22;4465;50.904;4.696;2023-04-06T04:57:09;5.60;99.90
8858;DHT22;4465;50.904;4.696;2023-04-06T04:59:35;5.70;99.90
8858;DHT22;4465;50.904;4.696;2023-04-06T05:02:03;5.70;99.90
8858;DHT22;4465;50.904;4.696;2023-04-06T05:04:29;5.70;99.90
8858;DHT22;4465;50.904;4.696;2023-04-06T05:07:02;5.70;99.90
8858;DHT22;4465;50.904;4.696;2023-04-06T05:09:30;5.70;99.90
8858;DHT22;4465;50.904;4.696;2023-04-06T05:11:57;5.70;99.90
8858;DHT22;4465;50.904;4.696;2023-04-06T05:14:25;5.70;99.90
8858;DHT22;4465;50.904;4.696;2023-04-06T05:16:51;5.70;99.90
8858;DHT22;4465;50.904;4.696;2023-04-06T05:19:19;5.70;99.90
8858;DHT22;4465;50.904;4.696;2023-04-06T05:21:45;5.70;99.90
8858;DHT22;4465;50.904;4.696;2023-04-06T05:24:11;5.70;99.90
8858;DHT22;4465;50.904;4.696;2023-04-06T05:26:37;5.80;99.90
8858;DHT22;4465;50.904;4.696;2023-04-06T05:29:03;5.80;99.90
8858;DHT22;4465;50.904;4.696;2023-04-06T05:31:29;5.90;99.90
8858;DHT22;4465;50.904;4.696;2023-04-06T05:33:55;5.80;99.90
8858;DHT22;4465;50.904;4.696;2023-04-06T05:36:21;5.90;99.90
8858;DHT22;4465;50.904;4.696;2023-04-06T05:38:46;5.80;99.90
8858;DHT22;4465;50.904;4.696;2023-04-06T05:41:16;5.90;99.90
8858;DHT22;4465;50.904;4.696;2023-04-06T05:43:44;5.90;99.90
8858;DHT22;4465;50.904;4.696;2023-04-06T05:46:10;5.90;99.90
8858;DHT22;4465;50.904;4.696;2023-04-06T05:48:38;5.90;99.90
8858;DHT22;4465;50.904;4.696;2023-04-06T05:51:04;5.90;99.90
8858;DHT22;4465;50.904;4.696;2023-04-06T05:53:32;6.00;99.90
8858;DHT22;4465;50.904;4.696;2023-04-06T05:56:04;6.00;99.90
8858;DHT22;4465;50.904;4.696;2023-04-06T05:58:30;6.00;99.90
8858;DHT22;4465;50.904;4.696;2023-04-06T06:01:01;6.00;99.90
8858;DHT22;4465;50.904;4.696;2023-04-06T06:03:28;6.00;99.90
8858;DHT22;4465;50.904;4.696;2023-04-06T06:06:00;6.10;99.90
8858;DHT22;4465;50.904;4.696;2023-04-06T06:08:27;6.10;99.90
8858;DHT22;4465;50.904;4.696;2023-04-06T06:10:55;6.20;99.90
8858;DHT22;4465;50.904;4.696;2023-04-06T06:13:22;6.20;99.90
8858;DHT22;4465;50.904;4.696;2023-04-06T06:15:53;6.30;99.90
8858;DHT22;4465;50.904;4.696;2023-04-06T06:18:19;6.30;99.90
8858;DHT22;4465;50.904;4.696;2023-04-06T06:20:47;6.40;99.90
8858;DHT22;4465;50.904;4.696;2023-04-06T06:23:15;6.50;99.90
8858;DHT22;4465;50.904;4.696;2023-04-06T06:25:41;6.50;99.90
8858;DHT22;4465;50.904;4.696;2023-04-06T06:28:07;6.60;99.90
8858;DHT22;4465;50.904;4.696;2023-04-06T06:30:33;6.70;99.90
8858;DHT22;4465;50.904;4.696;2023-04-06T06:32:58;6.70;99.90
8858;DHT22;4465;50.904;4.696;2023-04-06T06:35:25;6.80;99.90
8858;DHT22;4465;50.904;4.696;2023-04-06T06:37:51;6.90;99.90
8858;DHT22;4465;50.904;4.696;2023-04-06T06:40:21;6.90;99.90
8858;DHT22;4465;50.904;4.696;2023-04-06T06:42:49;7.00;99.90
8858;DHT22;4465;50.904;4.696;2023-04-06T06:45:17;7.00;99.90
8858;DHT22;4465;50.904;4.696;2023-04-06T06:47:43;7.00;99.90
8858;DHT22;4465;50.904;4.696;2023-04-06T06:50:09;7.10;99.90
8858;DHT22;4465;50.904;4.696;2023-04-06T06:52:35;7.10;99.90
8858;DHT22;4465;50.904;4.696;2023-04-06T06:55:04;7.10;99.90
8858;DHT22;4465;50.904;4.696;2023-04-06T06:57:29;7.20;99.90
8858;DHT22;4465;50.904;4.696;2023-04-06T06:59:58;7.20;99.90
8858;DHT22;4465;50.904;4.696;2023-04-06T07:02:27;7.30;99.90
8858;DHT22;4465;50.904;4.696;2023-04-06T07:04:53;7.30;99.90
8858;DHT22;4465;50.904;4.696;2023-04-06T07:07:19;7.30;99.90
8858;DHT22;4465;50.904;4.696;2023-04-06T07:09:45;7.30;99.90
8858;DHT22;4465;50.904;4.696;2023-04-06T07:12:15;7.30;99.90
8858;DHT22;4465;50.904;4.696;2023-04-06T07:14:42;7.40;99.90
8858;DHT22;4465;50.904;4.696;2023-04-06T07:17:09;7.40;99.90
8858;DHT22;4465;50.904;4.696;2023-04-06T07:19:35;7.50;99.90
8858;DHT22;4465;50.904;4.696;2023-04-06T07:22:01;7.50;99.90
8858;DHT22;4465;50.904;4.696;2023-04-06T07:24:28;7.60;99.90
8858;DHT22;4465;50.904;4.696;2023-04-06T07:26:54;7.60;99.90
8858;DHT22;4465;50.904;4.696;2023-04-06T07:29:22;7.70;99.90
8858;DHT22;4465;50.904;4.696;2023-04-06T07:31:48;7.70;99.90
8858;DHT22;4465;50.904;4.696;2023-04-06T07:34:15;7.70;99.90
8858;DHT22;4465;50.904;4.696;2023-04-06T07:36:43;7.70;99.90
8858;DHT22;4465;50.904;4.696;2023-04-06T07:39:08;7.70;99.90
8858;DHT22;4465;50.904;4.696;2023-04-06T07:41:37;7.70;99.90
8858;DHT22;4465;50.904;4.696;2023-04-06T07:44:03;7.80;99.90
8858;DHT22;4465;50.904;4.696;2023-04-06T07:46:29;7.80;99.90
8858;DHT22;4465;50.904;4.696;2023-04-06T07:48:56;7.80;99.90
8858;DHT22;4465;50.904;4.696;2023-04-06T07:51:21;7.80;99.90
8858;DHT22;4465;50.904;4.696;2023-04-06T07:53:47;7.80;99.90
8858;DHT22;4465;50.904;4.696;2023-04-06T07:56:13;7.80;99.90
8858;DHT22;4465;50.904;4.696;2023-04-06T07:58:40;7.80;99.90
8858;DHT22;4465;50.904;4.696;2023-04-06T08:01:08;7.80;99.90
8858;DHT22;4465;50.904;4.696;2023-04-06T08:03:34;7.80;99.90
8858;DHT22;4465;50.904;4.696;2023-04-06T08:06:03;7.80;99.90
8858;DHT22;4465;50.904;4.696;2023-04-06T08:08:29;7.80;99.90
8858;DHT22;4465;50.904;4.696;2023-04-06T08:10:54;7.90;99.90
8858;DHT22;4465;50.904;4.696;2023-04-06T08:13:20;7.90;99.90
8858;DHT22;4465;50.904;4.696;2023-04-06T08:15:46;8.00;99.90
8858;DHT22;4465;50.904;4.696;2023-04-06T08:18:12;8.00;99.90
8858;DHT22;4465;50.904;4.696;2023-04-06T08:20:38;8.00;99.90
8858;DHT22;4465;50.904;4.696;2023-04-06T08:23:04;8.00;99.90
8858;DHT22;4465;50.904;4.696;2023-04-06T08:25:37;8.00;99.90
8858;DHT22;4465;50.904;4.696;2023-04-06T08:28:03;8.10;99.90
8858;DHT22;4465;50.904;4.696;2023-04-06T08:30:29;8.10;99.90
8858;DHT22;4465;50.904;4.696;2023-04-06T08:32:55;8.10;99.90
8858;DHT22;4465;50.904;4.696;2023-04-06T08:35:23;8.20;99.90
8858;DHT22;4465;50.904;4.696;2023-04-06T08:37:49;8.20;99.90
8858;DHT22;4465;50.904;4.696;2023-04-06T08:40:14;8.30;99.90
8858;DHT22;4465;50.904;4.696;2023-04-06T08:42:41;8.30;99.90
8858;DHT22;4465;50.904;4.696;2023-04-06T08:45:11;8.30;99.90
8858;DHT22;4465;50.904;4.696;2023-04-06T08:47:37;8.30;99.90
8858;DHT22;4465;50.904;4.696;2023-04-06T08:50:06;8.40;99.90
8858;DHT22;4465;50.904;4.696;2023-04-06T08:52:33;8.50;99.90
8858;DHT22;4465;50.904;4.696;2023-04-06T08:55:02;8.50;99.90
8858;DHT22;4465;50.904;4.696;2023-04-06T08:57:31;8.60;99.90
8858;DHT22;4465;50.904;4.696;2023-04-06T08:59:57;8.70;99.90
8858;DHT22;4465;50.904;4.696;2023-04-06T09:02:23;8.70;99.90
8858;DHT22;4465;50.904;4.696;2023-04-06T09:04:52;8.60;99.90
8858;DHT22;4465;50.904;4.696;2023-04-06T09:07:19;8.70;99.90
8858;DHT22;4465;50.904;4.696;2023-04-06T09:09:45;8.70;99.90
8858;DHT22;4465;50.904;4.696;2023-04-06T09:14:48;8.70;99.90
8858;DHT22;4465;50.904;4.696;2023-04-06T09:17:21;8.70;99.90
8858;DHT22;4465;50.904;4.696;2023-04-06T09:19:47;8.70;99.90
8858;DHT22;4465;50.904;4.696;2023-04-06T09:22:13;8.70;99.90
8858;DHT22;4465;50.904;4.696;2023-04-06T09:24:43;8.70;99.90
8858;DHT22;4465;50.904;4.696;2023-04-06T09:27:09;8.80;99.90
8858;DHT22;4465;50.904;4.696;2023-04-06T09:29:35;8.80;99.90
8858;DHT22;4465;50.904;4.696;2023-04-06T09:32:06;8.70;99.90
8858;DHT22;4465;50.904;4.696;2023-04-06T09:34:33;8.90;99.90
8858;DHT22;4465;50.904;4.696;2023-04-06T09:36:59;8.90;99.90
8858;DHT22;4465;50.904;4.696;2023-04-06T09:39:24;8.90;99.90
8858;DHT22;4465;50.904;4.696;2023-04-06T09:41:53;9.00;99.90
8858;DHT22;4465;50.904;4.696;2023-04-06T09:44:22;9.10;99.90
8858;DHT22;4465;50.904;4.696;2023-04-06T09:46:51;9.10;99.90
8858;DHT22;4465;50.904;4.696;2023-04-06T09:49:18;9.10;99.90
8858;DHT22;4465;50.904;4.696;2023-04-06T09:51:45;9.10;99.90
8858;DHT22;4465;50.904;4.696;2023-04-06T09:54:18;9.10;99.90
8858;DHT22;4465;50.904;4.696;2023-04-06T09:59:11;9.20;99.90
8858;DHT22;4465;50.904;4.696;2023-04-06T10:01:38;9.20;99.90
8858;DHT22;4465;50.904;4.696;2023-04-06T10:04:10;9.20;99.90
8858;DHT22;4465;50.904;4.696;2023-04-06T10:06:39;9.30;99.90
8858;DHT22;4465;50.904;4.696;2023-04-06T10:09:05;9.30;99.90
8858;DHT22;4465;50.904;4.696;2023-04-06T10:11:35;9.40;99.90
8858;DHT22;4465;50.904;4.696;2023-04-06T10:14:01;9.40;99.90
8858;DHT22;4465;50.904;4.696;2023-04-06T10:16:27;9.30;99.90
8858;DHT22;4465;50.904;4.696;2023-04-06T10:18:56;9.30;99.90
8858;DHT22;4465;50.904;4.696;2023-04-06T10:21:26;9.30;99.90
8858;DHT22;4465;50.904;4.696;2023-04-06T10:24:00;9.30;99.90
8858;DHT22;4465;50.904;4.696;2023-04-06T10:26:26;9.20;99.90
8858;DHT22;4465;50.904;4.696;2023-04-06T10:28:52;9.20;99.90
8858;DHT22;4465;50.904;4.696;2023-04-06T10:31:27;9.20;99.90
8858;DHT22;4465;50.904;4.696;2023-04-06T10:33:57;9.20;99.90
8858;DHT22;4465;50.904;4.696;2023-04-06T10:36:24;9.20;99.90
8858;DHT22;4465;50.904;4.696;2023-04-06T10:38:55;9.10;99.90
8858;DHT22;4465;50.904;4.696;2023-04-06T10:41:24;9.10;99.90
8858;DHT22;4465;50.904;4.696;2023-04-06T10:43:59;9.00;99.90
8858;DHT22;4465;50.904;4.696;2023-04-06T10:46:27;9.00;99.90
8858;DHT22;4465;50.904;4.696;2023-04-06T10:48:56;9.00;99.90
8858;DHT22;4465;50.904;4.696;2023-04-06T10:51:26;9.00;99.90
8858;DHT22;4465;50.904;4.696;2023-04-06T10:53:56;8.90;99.90
8858;DHT22;4465;50.904;4.696;2023-04-06T10:56:23;8.90;99.90
8858;DHT22;4465;50.904;4.696;2023-04-06T10:58:54;8.90;99.90
8858;DHT22;4465;50.904;4.696;2023-04-06T11:01:24;8.90;99.90
8858;DHT22;4465;50.904;4.696;2023-04-06T11:03:52;9.00;99.90
8858;DHT22;4465;50.904;4.696;2023-04-06T11:06:25;9.00;99.90
8858;DHT22;4465;50.904;4.696;2023-04-06T11:08:52;9.00;99.90
8858;DHT22;4465;50.904;4.696;2023-04-06T11:11:24;9.00;99.90
8858;DHT22;4465;50.904;4.696;2023-04-06T11:13:56;9.00;99.90
8858;DHT22;4465;50.904;4.696;2023-04-06T11:16:22;9.00;99.90
8858;DHT22;4465;50.904;4.696;2023-04-06T11:18:55;9.10;99.90
8858;DHT22;4465;50.904;4.696;2023-04-06T11:24:12;9.10;99.90
8858;DHT22;4465;50.904;4.696;2023-04-06T11:29:04;9.10;99.90
8858;DHT22;4465;50.904;4.696;2023-04-06T11:31:33;9.10;99.90
8858;DHT22;4465;50.904;4.696;2023-04-06T11:34:08;9.10;99.90
8858;DHT22;4465;50.904;4.696;2023-04-06T11:36:34;9.10;99.90
8858;DHT22;4465;50.904;4.696;2023-04-06T11:39:02;9.10;99.90
8858;DHT22;4465;50.904;4.696;2023-04-06T11:41:28;9.00;99.90
8858;DHT22;4465;50.904;4.696;2023-04-06T11:43:55;9.00;99.90
8858;DHT22;4465;50.904;4.696;2023-04-06T11:46:21;9.10;99.90
8858;DHT22;4465;50.904;4.696;2023-04-06T11:48:47;9.00;99.90
8858;DHT22;4465;50.904;4.696;2023-04-06T11:51:21;9.10;99.90
8858;DHT22;4465;50.904;4.696;2023-04-06T11:53:49;9.00;99.90
8858;DHT22;4465;50.904;4.696;2023-04-06T11:56:25;9.00;99.90
8858;DHT22;4465;50.904;4.696;2023-04-06T11:58:51;9.10;99.90
8858;DHT22;4465;50.904;4.696;2023-04-06T12:01:17;9.10;99.90
8858;DHT22;4465;50.904;4.696;2023-04-06T12:03:42;9.10;99.90
8858;DHT22;4465;50.904;4.696;2023-04-06T12:06:08;9.10;99.90
8858;DHT22;4465;50.904;4.696;2023-04-06T12:08:34;9.10;99.90
8858;DHT22;4465;50.904;4.696;2023-04-06T12:11:00;9.10;99.90
8858;DHT22;4465;50.904;4.696;2023-04-06T12:13:31;9.10;99.90
8858;DHT22;4465;50.904;4.696;2023-04-06T12:16:01;9.10;99.90
8858;DHT22;4465;50.904;4.696;2023-04-06T12:18:27;9.10;99.90
8858;DHT22;4465;50.904;4.696;2023-04-06T12:20:55;9.20;99.90
8858;DHT22;4465;50.904;4.696;2023-04-06T12:23:21;9.20;99.90
8858;DHT22;4465;50.904;4.696;2023-04-06T12:25:47;9.20;99.90
8858;DHT22;4465;50.904;4.696;2023-04-06T12:28:13;9.30;99.90
8858;DHT22;4465;50.904;4.696;2023-04-06T12:30:38;9.30;99.90
8858;DHT22;4465;50.904;4.696;2023-04-06T12:33:06;9.30;99.90
8858;DHT22;4465;50.904;4.696;2023-04-06T12:35:34;9.30;99.90
8858;DHT22;4465;50.904;4.696;2023-04-06T12:38:00;9.20;99.90
8858;DHT22;4465;50.904;4.696;2023-04-06T12:40:29;9.30;99.90
8858;DHT22;4465;50.904;4.696;2023-04-06T12:42:55;9.30;99.90
8858;DHT22;4465;50.904;4.696;2023-04-06T12:45:23;9.40;99.90
8858;DHT22;4465;50.904;4.696;2023-04-06T12:47:49;9.40;99.90
8858;DHT22;4465;50.904;4.696;2023-04-06T12:50:17;9.40;99.90
8858;DHT22;4465;50.904;4.696;2023-04-06T12:52:42;9.40;99.90
8858;DHT22;4465;50.904;4.696;2023-04-06T12:55:08;9.40;99.90
8858;DHT22;4465;50.904;4.696;2023-04-06T12:57:34;9.50;99.90
8858;DHT22;4465;50.904;4.696;2023-04-06T13:00:00;9.50;99.90
8858;DHT22;4465;50.904;4.696;2023-04-06T13:02:26;9.60;99.90
8858;DHT22;4465;50.904;4.696;2023-04-06T13:04:52;9.60;99.90
8858;DHT22;4465;50.904;4.696;2023-04-06T13:07:18;9.60;99.90
8858;DHT22;4465;50.904;4.696;2023-04-06T13:09:44;9.70;99.90
8858;DHT22;4465;50.904;4.696;2023-04-06T13:12:12;9.70;99.90
8858;DHT22;4465;50.904;4.696;2023-04-06T13:14:38;9.80;99.90
8858;DHT22;4465;50.904;4.696;2023-04-06T13:17:05;9.80;99.90
8858;DHT22;4465;50.904;4.696;2023-04-06T13:19:32;9.80;99.90
8858;DHT22;4465;50.904;4.696;2023-04-06T13:22:00;9.80;99.90
8858;DHT22;4465;50.904;4.696;2023-04-06T13:24:25;9.90;99.90
8858;DHT22;4465;50.904;4.696;2023-04-06T13:26:53;9.90;99.90
8858;DHT22;4465;50.904;4.696;2023-04-06T13:29:19;9.90;99.90
8858;DHT22;4465;50.904;4.696;2023-04-06T13:31:46;9.90;99.90
8858;DHT22;4465;50.904;4.696;2023-04-06T13:34:12;9.90;99.90
8858;DHT22;4465;50.904;4.696;2023-04-06T13:36:37;9.90;99.90
8858;DHT22;4465;50.904;4.696;2023-04-06T13:39:08;9.90;99.90
8858;DHT22;4465;50.904;4.696;2023-04-06T13:41:36;9.80;99.90
8858;DHT22;4465;50.904;4.696;2023-04-06T13:44:02;9.70;99.90
8858;DHT22;4465;50.904;4.696;2023-04-06T13:46:28;9.70;99.90
8858;DHT22;4465;50.904;4.696;2023-04-06T13:48:54;9.60;99.90
8858;DHT22;4465;50.904;4.696;2023-04-06T13:51:20;9.70;99.90
8858;DHT22;4465;50.904;4.696;2023-04-06T13:53:46;9.60;99.90
8858;DHT22;4465;50.904;4.696;2023-04-06T13:56:12;9.60;99.90
8858;DHT22;4465;50.904;4.696;2023-04-06T13:58:37;9.60;99.90
8858;DHT22;4465;50.904;4.696;2023-04-06T14:01:04;9.50;99.90
8858;DHT22;4465;50.904;4.696;2023-04-06T14:03:34;9.60;99.90
8858;DHT22;4465;50.904;4.696;2023-04-06T14:06:00;9.50;99.90
8858;DHT22;4465;50.904;4.696;2023-04-06T14:08:25;9.50;99.90
8858;DHT22;4465;50.904;4.696;2023-04-06T14:10:53;9.50;99.90
8858;DHT22;4465;50.904;4.696;2023-04-06T14:13:20;9.50;99.90
8858;DHT22;4465;50.904;4.696;2023-04-06T14:15:46;9.50;99.90
8858;DHT22;4465;50.904;4.696;2023-04-06T14:18:12;9.50;99.90
8858;DHT22;4465;50.904;4.696;2023-04-06T14:20:38;9.50;99.90
8858;DHT22;4465;50.904;4.696;2023-04-06T14:23:04;9.50;99.90
8858;DHT22;4465;50.904;4.696;2023-04-06T14:25:30;9.50;99.90
8858;DHT22;4465;50.904;4.696;2023-04-06T14:28:00;9.60;99.90
8858;DHT22;4465;50.904;4.696;2023-04-06T14:30:32;9.60;99.90
8858;DHT22;4465;50.904;4.696;2023-04-06T14:33:00;9.70;99.90
8858;DHT22;4465;50.904;4.696;2023-04-06T14:35:26;9.70;99.90
8858;DHT22;4465;50.904;4.696;2023-04-06T14:37:53;9.70;99.90
8858;DHT22;4465;50.904;4.696;2023-04-06T14:40:21;9.70;99.90
8858;DHT22;4465;50.904;4.696;2023-04-06T14:42:49;9.70;99.90
8858;DHT22;4465;50.904;4.696;2023-04-06T14:45:18;9.70;99.90
8858;DHT22;4465;50.904;4.696;2023-04-06T14:47:46;9.70;99.90
8858;DHT22;4465;50.904;4.696;2023-04-06T14:50:15;9.70;99.90
8858;DHT22;4465;50.904;4.696;2023-04-06T14:52:41;9.80;99.90
8858;DHT22;4465;50.904;4.696;2023-04-06T14:55:09;9.80;99.90
8858;DHT22;4465;50.904;4.696;2023-04-06T14:57:35;9.80;99.90
8858;DHT22;4465;50.904;4.696;2023-04-06T15:00:01;9.80;99.90
8858;DHT22;4465;50.904;4.696;2023-04-06T15:02:28;9.80;99.90
8858;DHT22;4465;50.904;4.696;2023-04-06T15:04:54;9.80;99.90
8858;DHT22;4465;50.904;4.696;2023-04-06T15:07:22;9.70;99.90
8858;DHT22;4465;50.904;4.696;2023-04-06T15:09:48;9.70;99.90
8858;DHT22;4465;50.904;4.696;2023-04-06T15:12:13;9.80;99.90
8858;DHT22;4465;50.904;4.696;2023-04-06T15:14:39;9.80;99.90
8858;DHT22;4465;50.904;4.696;2023-04-06T15:17:05;9.80;99.90
8858;DHT22;4465;50.904;4.696;2023-04-06T15:19:33;9.80;99.90
8858;DHT22;4465;50.904;4.696;2023-04-06T15:21:59;9.80;99.90
8858;DHT22;4465;50.904;4.696;2023-04-06T15:24:25;9.80;99.90
8858;DHT22;4465;50.904;4.696;2023-04-06T15:26:51;9.80;99.90
8858;DHT22;4465;50.904;4.696;2023-04-06T15:29:19;9.80;99.90
8858;DHT22;4465;50.904;4.696;2023-04-06T15:31:45;9.70;99.90
8858;DHT22;4465;50.904;4.696;2023-04-06T15:34:13;9.80;99.90
8858;DHT22;4465;50.904;4.696;2023-04-06T15:36:39;9.80;99.90
8858;DHT22;4465;50.904;4.696;2023-04-06T15:39:06;9.80;99.90
8858;DHT22;4465;50.904;4.696;2023-04-06T15:41:34;9.80;99.90
8858;DHT22;4465;50.904;4.696;2023-04-06T15:44:00;9.90;99.90
8858;DHT22;4465;50.904;4.696;2023-04-06T15:46:25;10.00;99.90
8858;DHT22;4465;50.904;4.696;2023-04-06T15:48:52;10.00;99.90
8858;DHT22;4465;50.904;4.696;2023-04-06T15:51:18;10.10;99.90
8858;DHT22;4465;50.904;4.696;2023-04-06T15:53:44;10.10;99.90
8858;DHT22;4465;50.904;4.696;2023-04-06T15:56:09;10.10;99.90
8858;DHT22;4465;50.904;4.696;2023-04-06T15:58:35;10.20;99.90
8858;DHT22;4465;50.904;4.696;2023-04-06T16:01:09;10.20;99.90
8858;DHT22;4465;50.904;4.696;2023-04-06T16:03:35;10.20;99.90
8858;DHT22;4465;50.904;4.696;2023-04-06T16:06:01;10.20;99.90
8858;DHT22;4465;50.904;4.696;2023-04-06T16:08:27;10.20;99.90
8858;DHT22;4465;50.904;4.696;2023-04-06T16:10:52;10.20;99.90
8858;DHT22;4465;50.904;4.696;2023-04-06T16:13:18;10.30;99.90
8858;DHT22;4465;50.904;4.696;2023-04-06T16:15:48;10.20;99.90
8858;DHT22;4465;50.904;4.696;2023-04-06T16:18:14;10.20;99.90
8858;DHT22;4465;50.904;4.696;2023-04-06T16:20:40;10.20;99.90
8858;DHT22;4465;50.904;4.696;2023-04-06T16:23:05;10.30;99.90
8858;DHT22;4465;50.904;4.696;2023-04-06T16:25:31;10.20;99.90